Terminal Aerodrome Forecast
Issued by NWS Grand Forks, ND

Home | Current Version | Previous Version | Text Only | Print | Product List | Glossary Off
Versions: 1 2 3 4 5 6 7 8 9 10 11 12 13 14 15 16 17 18 19 20

000
FTUS43 KFGF 210100 AAA
TAFGFK
TAF AMD
KGFK 210105Z 2101/2124 01008KT P6SM SCT060 BKN100
     FM210300 34008KT P6SM SCT100
     FM211200 32008KT P6SM BKN025
     FM211700 34008KT P6SM SCT100=

USA.gov is the U.S. government's official web portal to all federal, state and local government web resources and services.